Time;durP1;ratioP1;P1;durP2;ratioP2;P2;SDS_P1;SDS_P2;PMS_P1;PMS_P2;Temp;Humidity;BMP_temperature;BMP_pressure;BME280_temperature;BME280_humidity;BME280_pressure;Samples;Min_cycle;Max_cycle;Signal;HPM_P1;HPM_P2
2022/01/08 00:00:08;;;;;;;36.25;12.37;;;;;;;-1.07;53.17;99017.02;1749723;82;21003;-44
2022/01/08 00:02:34;;;;;;;43.17;14.78;;;;;;;-1.07;53.53;99017.02;1749616;82;21034;-42
2022/01/08 00:05:00;;;;;;;36.13;13.48;;;;;;;-1.04;53.82;99007.91;1749699;82;21525;-42
2022/01/08 00:07:27;;;;;;;32.95;12.90;;;;;;;-1.10;53.75;99007.56;1749567;82;21495;-42
2022/01/08 00:09:54;;;;;;;35.40;14.33;;;;;;;-1.18;53.34;99015.41;1749664;82;21037;-41
2022/01/08 00:12:19;;;;;;;35.83;13.07;;;;;;;-1.12;53.90;99008.02;1749799;82;20985;-42
2022/01/08 00:14:45;;;;;;;39.23;13.40;;;;;;;-1.24;54.02;99005.14;1749637;82;21008;-42
2022/01/08 00:17:11;;;;;;;33.60;12.65;;;;;;;-1.15;54.18;99000.31;1749625;82;21563;-43
2022/01/08 00:19:37;;;;;;;32.83;13.13;;;;;;;-1.20;53.85;98989.19;1749561;82;20995;-42
2022/01/08 00:22:03;;;;;;;34.85;13.18;;;;;;;-1.28;53.79;98995.73;1749558;82;21000;-42
2022/01/08 00:24:29;;;;;;;38.65;12.68;;;;;;;-1.21;54.02;98992.66;1749501;82;21563;-42
2022/01/08 00:26:55;;;;;;;32.25;12.90;;;;;;;-1.30;53.99;98989.75;1749552;82;21038;-42
2022/01/08 00:29:20;;;;;;;29.85;12.75;;;;;;;-1.31;54.29;98998.38;1707842;82;21067;-44
2022/01/08 00:31:46;;;;;;;29.60;11.73;;;;;;;-1.27;54.57;98987.14;1699783;84;21058;-43
2022/01/08 00:34:12;;;;;;;35.33;11.95;;;;;;;-1.28;54.33;98986.70;1699818;84;20980;-43
2022/01/08 00:36:38;;;;;;;33.90;12.75;;;;;;;-1.26;54.36;98984.95;1699725;84;20996;-44
2022/01/08 00:39:05;;;;;;;36.42;12.98;;;;;;;-1.36;54.47;98980.80;1699808;84;20987;-43
2022/01/08 00:41:31;;;;;;;27.82;11.53;;;;;;;-1.46;54.80;98984.35;1699812;84;21564;-41
2022/01/08 00:43:57;;;;;;;32.23;11.95;;;;;;;-1.41;54.82;98976.12;1699776;84;21524;-43
2022/01/08 00:46:23;;;;;;;31.00;11.95;;;;;;;-1.43;54.98;98980.02;1699769;84;21521;-42
2022/01/08 00:48:49;;;;;;;27.67;11.05;;;;;;;-1.43;54.90;98977.88;1699765;84;21436;-42
2022/01/08 00:51:16;;;;;;;28.05;11.28;;;;;;;-1.44;55.10;98978.73;1699786;83;21403;-43
2022/01/08 00:53:42;;;;;;;28.17;11.22;;;;;;;-1.38;55.13;98976.95;1699771;84;21477;-43
2022/01/08 00:56:08;;;;;;;27.48;11.00;;;;;;;-1.43;55.04;98981.30;1699825;84;21028;-43
2022/01/08 00:58:34;;;;;;;26.15;10.98;;;;;;;-1.47;55.04;98981.38;1699748;84;21007;-43
2022/01/08 01:01:00;;;;;;;30.37;11.50;;;;;;;-1.60;55.77;98978.92;1699855;84;20999;-42
2022/01/08 01:03:25;;;;;;;26.05;10.63;;;;;;;-1.51;55.55;98973.23;1699758;84;21042;-43
2022/01/08 01:05:51;;;;;;;27.25;10.95;;;;;;;-1.59;55.72;98966.88;1699699;84;21048;-43
2022/01/08 01:08:17;;;;;;;25.97;10.58;;;;;;;-1.57;55.68;98959.53;1699732;84;21125;-42
2022/01/08 01:10:43;;;;;;;26.80;10.95;;;;;;;-1.64;55.56;98960.47;1699762;84;20988;-43
2022/01/08 01:13:09;;;;;;;26.77;10.50;;;;;;;-1.57;55.95;98955.66;1699733;84;21019;-44
2022/01/08 01:15:35;;;;;;;25.55;10.25;;;;;;;-1.57;56.01;98944.06;1699839;84;20999;-41
2022/01/08 01:18:01;;;;;;;28.32;10.00;;;;;;;-1.62;55.68;98948.44;1699860;84;21491;-42
2022/01/08 01:20:27;;;;;;;21.45;9.98;;;;;;;-1.61;56.14;98943.69;1699713;84;21011;-43
2022/01/08 01:22:59;;;;;;;27.05;10.18;;;;;;;-1.60;56.22;98937.67;1699767;84;21047;-42
2022/01/08 01:25:26;;;;;;;;;;;;;;;-1.67;55.89;98938.61;1701602;84;21000;-41
2022/01/08 01:49:12;;;;;;;21.10;8.63;;;;;;;-1.80;57.40;98917.69;1741799;82;21019;-44
2022/01/08 01:51:38;;;;;;;18.12;8.18;;;;;;;-1.79;57.62;98914.25;1741721;82;21545;-43
2022/01/08 01:54:04;;;;;;;23.62;8.70;;;;;;;-1.83;58.02;98915.17;1741721;82;21008;-45
2022/01/08 01:56:30;;;;;;;18.55;7.83;;;;;;;-1.78;57.91;98914.69;1741794;82;21039;-44
2022/01/08 01:58:56;;;;;;;24.25;10.35;;;;;;;-1.81;58.07;98914.27;1741842;82;21030;-40
2022/01/08 02:01:22;;;;;;;25.70;11.12;;;;;;;-1.84;57.95;98923.31;1741808;82;21493;-41
2022/01/08 02:03:48;;;;;;;20.68;9.73;;;;;;;-1.82;58.35;98919.44;1741778;82;21043;-40
2022/01/08 02:06:14;;;;;;;19.40;8.13;;;;;;;-1.84;58.46;98928.47;1741675;82;20986;-40
2022/01/08 02:08:42;;;;;;;22.20;8.85;;;;;;;-1.83;57.88;98919.03;1741676;82;21070;-42
2022/01/08 02:11:08;;;;;;;21.00;8.25;;;;;;;-1.85;58.18;98921.63;1741797;82;20992;-41
2022/01/08 02:13:35;;;;;;;21.30;9.03;;;;;;;-1.86;58.53;98919.06;1741720;82;21000;-43
2022/01/08 02:16:03;;;;;;;15.78;8.00;;;;;;;-1.91;58.67;98909.23;1741876;82;20995;-43
2022/01/08 02:18:30;;;;;;;15.25;6.70;;;;;;;-1.91;58.67;98907.94;1741847;82;20991;-42
2022/01/08 02:20:58;;;;;;;17.42;7.40;;;;;;;-1.91;58.55;98910.11;1741670;82;20997;-45
2022/01/08 02:23:24;;;;;;;16.45;6.90;;;;;;;-1.91;58.67;98911.39;1741712;82;20996;-43
2022/01/08 02:25:51;;;;;;;22.22;8.28;;;;;;;-1.87;58.68;98907.03;1741705;82;20995;-42
2022/01/08 02:28:17;;;;;;;19.40;8.38;;;;;;;-1.84;58.81;98918.60;1742749;82;21024;-40
2022/01/08 02:30:44;;;;;;;15.32;6.80;;;;;;;-1.83;58.88;98914.72;1749676;82;21442;-41
2022/01/08 02:33:10;;;;;;;17.32;7.20;;;;;;;-1.91;59.01;98913.97;1749777;82;21046;-40
2022/01/08 02:35:36;;;;;;;17.15;7.40;;;;;;;-1.86;59.71;98907.46;1749600;82;20964;-42
2022/01/08 02:38:02;;;;;;;15.80;6.92;;;;;;;-1.86;59.25;98907.02;1749644;82;21540;-41
2022/01/08 02:43:04;;;;;;;16.20;6.78;;;;;;;-1.82;59.11;98902.68;1787640;79;21090;-42
2022/01/08 02:45:31;;;;;;;14.45;6.90;;;;;;;-1.81;59.29;98892.80;1793712;80;20978;-43
2022/01/08 02:47:57;;;;;;;18.35;6.33;;;;;;;-1.85;59.47;98903.58;1793631;80;21030;-41
2022/01/08 02:50:24;;;;;;;15.88;7.20;;;;;;;-1.79;59.25;98892.34;1793443;80;20963;-42
2022/01/08 02:52:51;;;;;;;13.23;6.73;;;;;;;-1.89;59.26;98889.03;1793703;80;21076;-42
2022/01/08 02:55:20;;;;;;;13.38;6.75;;;;;;;-1.86;59.56;98890.70;1793393;80;21688;-43
2022/01/08 02:57:47;;;;;;;13.65;6.65;;;;;;;-1.83;59.35;98885.53;1793486;80;20987;-43
2022/01/08 03:00:16;;;;;;;14.98;6.85;;;;;;;-1.86;59.53;98881.24;1793577;80;21436;-43
2022/01/08 03:02:45;;;;;;;16.65;6.40;;;;;;;-1.89;60.13;98880.02;1793423;80;21026;-44
2022/01/08 03:05:12;;;;;;;14.25;7.03;;;;;;;-1.91;59.77;98884.34;1793438;80;21034;-43
2022/01/08 03:07:40;;;;;;;17.17;7.67;;;;;;;-1.91;59.68;98882.17;1793619;80;21444;-43
2022/01/08 03:10:10;;;;;;;15.80;7.00;;;;;;;-1.94;59.77;98883.07;1793448;80;20990;-43
2022/01/08 03:12:40;;;;;;;17.50;6.92;;;;;;;-1.94;59.89;98876.19;1793569;80;21041;-41
2022/01/08 03:15:06;;;;;;;16.97;7.00;;;;;;;-2.05;60.08;98878.48;1792892;80;20982;-41
2022/01/08 03:17:32;;;;;;;26.30;8.30;;;;;;;-2.01;60.49;98871.97;1793520;80;20970;-42
2022/01/08 03:20:04;;;;;;;19.20;7.95;;;;;;;-1.97;60.57;98865.05;1793532;80;21038;-42
2022/01/08 03:22:27;;;;;;;;;;;;;;;-1.98;60.11;98864.66;1795113;80;20983;-44
2022/01/08 03:24:53;;;;;;;14.38;7.12;;;;;;;-2.02;60.52;98860.39;1793340;80;20104;-41
2022/01/08 03:27:18;;;;;;;15.08;7.03;;;;;;;-1.96;60.34;98862.47;1793470;80;21471;-42
2022/01/08 03:29:44;;;;;;;17.35;6.83;;;;;;;-1.89;60.01;98859.39;1793431;80;21436;-43
2022/01/08 03:32:10;;;;;;;14.87;6.62;;;;;;;-1.90;60.18;98846.52;1793375;80;21038;-42
2022/01/08 03:34:35;;;;;;;14.35;5.85;;;;;;;-1.90;60.18;98846.52;1793439;80;21002;-41
2022/01/08 03:37:02;;;;;;;12.70;6.50;;;;;;;-1.83;60.16;98852.02;1793519;80;21455;-43
2022/01/08 03:39:27;;;;;;;16.02;6.60;;;;;;;-1.83;59.97;98844.29;1793551;80;20999;-42
2022/01/08 03:41:53;;;;;;;13.48;6.45;;;;;;;-1.81;60.28;98845.12;1784877;80;21032;-45
2022/01/08 03:44:19;;;;;;;13.55;6.45;;;;;;;-1.86;59.81;98841.30;1764527;81;21446;-44
2022/01/08 03:46:45;;;;;;;14.40;6.40;;;;;;;-1.96;60.24;98840.56;1766349;80;21031;-45
2022/01/08 03:49:22;;;;;;;13.03;6.45;;;;;;;-2.01;60.37;98841.05;1766549;81;20996;-41
2022/01/08 03:51:39;;;;;;;13.18;6.40;;;;;;;-2.00;60.06;98839.31;1764689;81;21026;-43
2022/01/08 03:54:05;;;;;;;15.33;6.57;;;;;;;-2.04;60.49;98836.37;1766463;81;20960;-43
2022/01/08 03:56:31;;;;;;;15.70;6.62;;;;;;;-2.03;60.62;98832.48;1766447;81;21398;-41
2022/01/08 03:58:56;;;;;;;13.55;6.28;;;;;;;-1.99;60.74;98839.75;1766464;81;20973;-43
2022/01/08 04:01:22;;;;;;;13.08;6.22;;;;;;;-2.00;60.62;98841.48;1766441;81;21039;-44
2022/01/08 04:03:48;;;;;;;13.08;6.05;;;;;;;-1.94;60.71;98843.13;1766449;81;21007;-42
2022/01/08 04:06:14;;;;;;;17.02;6.33;;;;;;;-1.98;60.48;98844.05;1766441;81;21004;-43
2022/01/08 04:08:40;;;;;;;14.03;6.37;;;;;;;-2.05;60.48;98842.41;1766471;81;20992;-43
2022/01/08 04:11:06;;;;;;;14.87;6.60;;;;;;;-2.09;60.77;98839.02;1766292;81;21039;-43
2022/01/08 04:13:35;;;;;;;15.60;6.42;;;;;;;-2.09;61.09;98845.86;1766535;81;20995;-41
2022/01/08 04:16:09;;;;;;;19.40;6.97;;;;;;;-2.07;61.30;98842.42;1765940;81;21024;-44
2022/01/08 04:18:27;;;;;;;17.12;6.92;;;;;;;-2.16;61.20;98835.64;1764246;81;21035;-43
2022/01/08 04:23:21;;;;;;;17.30;7.35;;;;;;;-2.12;61.72;98830.02;1765211;80;21301;-46
2022/01/08 04:25:48;;;;;;;17.55;7.00;;;;;;;-2.05;61.33;98829.52;1764992;81;21659;-44
2022/01/08 04:28:15;;;;;;;16.37;6.95;;;;;;;-2.06;61.13;98827.36;1766440;81;21036;-44
2022/01/08 04:30:41;;;;;;;13.65;7.12;;;;;;;-2.13;61.16;98816.30;1766403;81;21047;-42
2022/01/08 04:33:07;;;;;;;17.90;7.55;;;;;;;-2.24;61.27;98819.84;1766438;80;20995;-43
2022/01/08 04:35:32;;;;;;;12.28;5.97;;;;;;;-2.20;61.44;98827.95;1766523;81;20964;-44
2022/01/08 04:37:58;;;;;;;15.93;6.60;;;;;;;-2.19;61.46;98821.50;1766535;81;21479;-43
2022/01/08 04:40:25;;;;;;;22.85;8.03;;;;;;;-2.24;61.64;98818.12;1766520;81;21504;-40
2022/01/08 04:42:51;;;;;;;18.10;6.63;;;;;;;-2.27;61.65;98812.14;1766574;81;21023;-44
2022/01/08 04:45:17;;;;;;;15.65;7.28;;;;;;;-2.23;61.74;98813.84;1766393;81;20988;-40
2022/01/08 04:47:44;;;;;;;16.05;8.05;;;;;;;-2.23;61.78;98812.55;1766487;81;21471;-42
2022/01/08 04:50:13;;;;;;;15.10;7.12;;;;;;;-2.28;62.02;98813.03;1766583;81;20988;-43
2022/01/08 04:52:41;;;;;;;24.90;7.87;;;;;;;-2.33;62.36;98810.49;1766444;81;21519;-43
2022/01/08 04:55:08;;;;;;;16.62;7.80;;;;;;;-2.26;62.09;98813.87;1766565;81;21030;-41
2022/01/08 04:57:33;;;;;;;14.40;7.60;;;;;;;-2.28;62.28;98801.00;1766543;81;21004;-43
2022/01/08 04:59:59;;;;;;;17.62;8.15;;;;;;;-2.30;62.73;98806.61;1766455;80;21039;-41
2022/01/08 05:02:25;;;;;;;20.30;9.90;;;;;;;-2.28;62.28;98809.17;1766549;81;21031;-43
2022/01/08 05:04:51;;;;;;;21.68;9.23;;;;;;;-2.30;62.45;98807.05;1766512;81;20984;-43
2022/01/08 05:07:16;;;;;;;17.67;8.58;;;;;;;-2.24;62.67;98804.39;1766571;81;21479;-43
2022/01/08 05:09:42;;;;;;;17.65;7.92;;;;;;;-2.22;62.40;98803.52;1766707;80;21458;-42
2022/01/08 05:12:08;;;;;;;21.55;8.75;;;;;;;-2.32;62.82;98804.48;1766594;81;21559;-41
2022/01/08 05:14:34;;;;;;;18.10;8.28;;;;;;;-2.27;62.90;98800.55;1766626;81;21010;-43
2022/01/08 05:17:01;;;;;;;19.40;7.87;;;;;;;-2.28;62.67;98797.58;1766676;81;21071;-42
2022/01/08 05:19:42;;;;;;;18.23;7.83;;;;;;;-2.29;62.19;98801.02;1766701;81;20996;-42
2022/01/08 05:22:06;;;;;;;18.77;8.23;;;;;;;-2.30;62.74;98805.77;1765844;81;21528;-42
2022/01/08 05:24:33;;;;;;;17.50;8.00;;;;;;;-2.36;62.71;98802.83;1766676;81;21000;-44
2022/01/08 05:26:59;;;;;;;16.37;7.53;;;;;;;-2.34;62.84;98801.08;1766574;80;21022;-45
2022/01/08 05:29:25;;;;;;;16.45;8.13;;;;;;;-2.30;63.04;98799.33;1766615;81;21473;-43
2022/01/08 05:31:52;;;;;;;17.52;8.08;;;;;;;-2.37;62.95;98807.09;1766671;81;21556;-43
2022/01/08 05:34:18;;;;;;;19.27;7.58;;;;;;;-2.33;62.81;98803.64;1766182;81;21003;-40
2022/01/08 05:36:43;;;;;;;16.87;7.83;;;;;;;-2.35;62.79;98802.81;1766650;81;21577;-41
2022/01/08 05:39:09;;;;;;;19.15;8.25;;;;;;;-2.34;63.25;98805.78;1766477;81;20992;-42
2022/01/08 05:41:35;;;;;;;18.37;8.90;;;;;;;-2.29;62.91;98801.89;1766509;81;21031;-43
2022/01/08 05:44:00;;;;;;;22.40;9.45;;;;;;;-2.28;62.98;98801.00;1766522;81;21024;-41
2022/01/08 05:46:26;;;;;;;22.17;9.63;;;;;;;-2.32;63.35;98801.47;1766551;80;21022;-41
2022/01/08 05:48:52;;;;;;;22.20;10.13;;;;;;;-2.41;63.29;98796.42;1766600;81;20964;-41
2022/01/08 05:51:18;;;;;;;25.12;10.63;;;;;;;-2.44;63.88;98793.88;1766695;81;20988;-41
2022/01/08 05:53:43;;;;;;;23.00;9.63;;;;;;;-2.39;63.57;98792.11;1766316;81;21023;-42
2022/01/08 05:56:09;;;;;;;25.90;10.03;;;;;;;-2.35;63.66;98792.52;1766564;81;21749;-43
2022/01/08 05:58:35;;;;;;;29.60;10.10;;;;;;;-2.29;63.26;98794.57;1766218;81;20976;-41
2022/01/08 06:01:01;;;;;;;26.82;10.20;;;;;;;-2.29;63.87;98799.72;1766597;81;21015;-41
2022/01/08 06:03:27;;;;;;;31.90;11.65;;;;;;;-2.27;63.40;98799.27;1766625;81;20976;-42
2022/01/08 06:05:52;;;;;;;23.98;9.75;;;;;;;-2.24;63.46;98803.95;1766541;81;21575;-45
2022/01/08 06:08:18;;;;;;;24.75;9.65;;;;;;;-2.23;63.14;98804.37;1766498;81;20999;-45
2022/01/08 06:10:44;;;;;;;32.00;10.60;;;;;;;-2.23;63.54;98800.96;1766539;81;21349;-43
2022/01/08 06:13:10;;;;;;;30.68;11.40;;;;;;;-2.31;63.50;98804.89;1766535;81;20965;-44
2022/01/08 06:15:36;;;;;;;29.37;10.95;;;;;;;-2.46;63.98;98791.75;1766738;81;20992;-42
2022/01/08 06:18:02;;;;;;;27.17;10.43;;;;;;;-2.44;64.19;98804.17;1766540;81;21007;-41
2022/01/08 06:20:28;;;;;;;29.30;11.48;;;;;;;-2.29;63.86;98797.15;1766538;81;20988;-42
2022/01/08 06:22:53;;;;;;;27.67;10.18;;;;;;;-2.36;63.77;98787.38;1766479;81;20996;-43
2022/01/08 06:25:19;;;;;;;25.85;9.95;;;;;;;-2.31;63.83;98790.72;1766429;81;20976;-41
2022/01/08 06:27:45;;;;;;;24.45;10.30;;;;;;;-2.32;64.08;98796.31;1766572;81;20992;-44
2022/01/08 06:30:11;;;;;;;21.27;9.95;;;;;;;-2.23;63.71;98800.96;1766516;81;21026;-43
2022/01/08 06:32:36;;;;;;;24.98;9.55;;;;;;;-2.23;64.25;98795.81;1766603;81;21036;-43
2022/01/08 06:35:03;;;;;;;30.10;10.40;;;;;;;-2.23;64.48;98806.11;1766510;81;21504;-44
2022/01/08 06:37:28;;;;;;;26.48;10.93;;;;;;;-2.16;63.76;98805.17;1766562;81;20968;-45
2022/01/08 06:39:54;;;;;;;26.17;11.25;;;;;;;-2.27;63.81;98800.14;1766604;81;21707;-43
2022/01/08 06:42:20;;;;;;;22.60;9.85;;;;;;;-2.21;64.22;98801.80;1767602;80;20992;-43
2022/01/08 06:44:46;;;;;;;23.60;10.63;;;;;;;-2.23;63.75;98803.54;1773579;80;20984;-43
2022/01/08 06:47:12;;;;;;;24.30;10.45;;;;;;;-2.15;64.16;98803.00;1773691;81;20983;-43
2022/01/08 06:49:37;;;;;;;26.07;10.45;;;;;;;-2.13;64.02;98802.54;1773614;80;21481;-41
2022/01/08 06:52:04;;;;;;;32.25;11.45;;;;;;;-2.12;63.89;98800.39;1773589;81;21481;-44
2022/01/08 06:54:29;;;;;;;23.30;10.98;;;;;;;-2.10;63.86;98804.24;1773564;81;21007;-41
2022/01/08 06:56:55;;;;;;;35.20;13.72;;;;;;;-2.14;63.80;98802.14;1773615;81;21003;-41
2022/01/08 06:59:21;;;;;;;25.52;12.33;;;;;;;-2.04;64.08;98801.58;1773598;81;21128;-43
2022/01/08 07:01:47;;;;;;;31.77;13.00;;;;;;;-2.01;63.75;98794.67;1773665;81;21489;-43
2022/01/08 07:04:12;;;;;;;26.68;10.82;;;;;;;-2.02;63.79;98803.29;1773644;81;21469;-42
2022/01/08 07:06:38;;;;;;;24.87;11.05;;;;;;;-1.98;63.63;98801.08;1773565;81;21035;-43
2022/01/08 07:09:06;;;;;;;22.20;10.43;;;;;;;-1.98;63.67;98804.95;1773586;81;21015;-41
2022/01/08 07:11:32;;;;;;;25.82;11.45;;;;;;;-1.86;63.21;98809.52;1773687;81;20983;-43
2022/01/08 07:13:58;;;;;;;27.48;10.98;;;;;;;-1.89;63.98;98804.39;1773589;81;21003;-43
2022/01/08 07:16:23;;;;;;;28.12;11.48;;;;;;;-1.86;63.53;98799.21;1773537;81;21027;-41
2022/01/08 07:18:49;;;;;;;25.68;11.40;;;;;;;-1.85;63.95;98802.22;1773552;81;21054;-41
2022/01/08 07:21:16;;;;;;;24.02;11.43;;;;;;;-1.78;63.84;98794.83;1773511;81;21039;-43
2022/01/08 07:23:41;;;;;;;26.63;12.10;;;;;;;-1.78;63.63;98790.95;1773814;81;20964;-42
2022/01/08 07:26:07;;;;;;;26.73;10.98;;;;;;;-1.81;63.88;98793.12;1773586;81;21023;-41
2022/01/08 07:28:33;;;;;;;24.45;11.78;;;;;;;-1.84;63.54;98794.89;1773669;81;21473;-41
2022/01/08 07:30:59;;;;;;;30.88;12.50;;;;;;;-1.88;63.61;98792.78;1773527;81;21038;-44
2022/01/08 07:33:24;;;;;;;28.02;11.18;;;;;;;-1.88;63.93;98790.66;1773534;81;20995;-42
2022/01/08 07:35:50;;;;;;;27.75;11.85;;;;;;;-1.81;63.88;98791.83;1773537;81;21035;-43
2022/01/08 07:38:16;;;;;;;32.48;13.40;;;;;;;-1.76;63.76;98789.21;1773604;81;20991;-44
2022/01/08 07:40:42;;;;;;;27.35;12.23;;;;;;;-1.72;63.60;98782.28;1773646;81;21655;-44
2022/01/08 07:43:07;;;;;;;24.75;12.45;;;;;;;-1.71;63.58;98784.84;1773479;81;21000;-44
2022/01/08 07:45:33;;;;;;;29.25;11.85;;;;;;;-1.58;63.64;98794.55;1773580;81;20987;-42
2022/01/08 07:47:59;;;;;;;31.20;12.78;;;;;;;-1.58;63.64;98794.55;1773618;81;20968;-44
2022/01/08 07:50:25;;;;;;;26.33;11.30;;;;;;;-1.48;63.38;98799.13;1773519;81;20991;-45
2022/01/08 07:52:50;;;;;;;29.02;12.28;;;;;;;-1.57;63.15;98797.08;1773542;81;21845;-43
2022/01/08 07:55:16;;;;;;;28.25;11.60;;;;;;;-1.50;63.05;98800.88;1773535;81;21026;-43
2022/01/08 07:57:42;;;;;;;30.62;12.73;;;;;;;-1.48;63.41;98798.68;1773510;81;21035;-43
2022/01/08 08:00:09;;;;;;;32.17;12.45;;;;;;;-1.42;63.41;98805.06;1773520;81;21034;-44
2022/01/08 08:02:35;;;;;;;24.05;11.73;;;;;;;-1.38;63.29;98800.70;1773675;80;20991;-43
2022/01/08 08:05:00;;;;;;;27.80;13.28;;;;;;;-1.37;63.35;98795.95;1773520;81;21473;-45
2022/01/08 08:07:36;;;;;;;31.42;12.73;;;;;;;-1.48;63.62;98800.42;1773578;81;21524;-43
2022/01/08 08:09:59;;;;;;;30.82;12.88;;;;;;;-1.33;63.35;98802.75;1772926;81;21441;-44
2022/01/08 08:12:24;;;;;;;30.68;13.78;;;;;;;-1.28;63.18;98799.67;1773573;81;20987;-44
2022/01/08 08:14:50;;;;;;;31.17;13.00;;;;;;;-1.26;63.30;98799.66;1773583;81;21509;-44
2022/01/08 08:17:16;;;;;;;38.65;14.38;;;;;;;-1.25;63.44;98794.47;1773590;81;20991;-44
2022/01/08 08:19:42;;;;;;;29.85;12.90;;;;;;;-1.21;63.39;98801.28;1773472;81;21381;-43
2022/01/08 08:22:09;;;;;;;31.15;14.30;;;;;;;-1.20;63.35;98800.84;1773587;81;20960;-43
2022/01/08 08:24:34;;;;;;;36.05;14.87;;;;;;;-1.16;63.63;98804.65;1773846;81;21500;-43
2022/01/08 08:27:00;;;;;;;29.55;14.03;;;;;;;-1.11;63.70;98802.02;1773477;81;20999;-41
2022/01/08 08:29:26;;;;;;;29.77;12.50;;;;;;;-1.13;63.65;98806.31;1773488;80;20967;-43
2022/01/08 08:31:52;;;;;;;36.05;14.50;;;;;;;-1.10;63.73;98808.86;1773484;81;20992;-43
2022/01/08 08:34:17;;;;;;;27.32;12.80;;;;;;;-1.03;63.64;98810.47;1773438;81;21039;-42
2022/01/08 08:36:43;;;;;;;26.73;12.33;;;;;;;-0.92;63.66;98807.71;1773519;81;20996;-43
2022/01/08 08:39:09;;;;;;;33.18;13.43;;;;;;;-0.91;63.70;98804.69;1773540;81;21057;-42
2022/01/08 08:41:35;;;;;;;29.80;13.25;;;;;;;-0.90;63.74;98799.95;1773546;81;20988;-42
2022/01/08 08:44:00;;;;;;;27.60;11.83;;;;;;;-0.86;63.56;98801.59;1773539;81;20992;-43
2022/01/08 08:46:26;;;;;;;19.98;11.28;;;;;;;-0.83;63.84;98808.84;1773656;81;21025;-43
2022/01/08 08:48:53;;;;;;;24.40;11.33;;;;;;;-0.86;63.74;98807.59;1773733;81;20960;-45
2022/01/08 08:51:19;;;;;;;28.27;11.73;;;;;;;-0.84;63.54;98816.16;1773938;81;21399;-43
2022/01/08 08:53:44;;;;;;;27.07;11.63;;;;;;;-0.86;63.69;98808.89;1773677;81;20964;-43
2022/01/08 08:56:10;;;;;;;22.55;11.65;;;;;;;-0.77;63.48;98810.47;1773737;81;21035;-43
2022/01/08 08:58:36;;;;;;;23.52;11.50;;;;;;;-0.77;63.48;98810.47;1773639;81;20991;-42
2022/01/08 09:01:02;;;;;;;25.82;12.00;;;;;;;-0.69;63.93;98814.20;1773669;81;21046;-46
2022/01/08 09:03:28;;;;;;;30.48;12.85;;;;;;;-0.69;63.96;98812.91;1773672;80;20985;-46
2022/01/08 09:05:54;;;;;;;25.35;11.90;;;;;;;-0.66;63.89;98819.32;1773717;81;21614;-44
2022/01/08 09:08:20;;;;;;;29.05;13.35;;;;;;;-0.69;63.84;98813.78;1773714;81;20986;-44
2022/01/08 09:10:45;;;;;;;25.75;11.70;;;;;;;-0.65;64.18;98810.71;1773734;81;21457;-45
2022/01/08 09:13:11;;;;;;;30.12;13.50;;;;;;;-0.61;64.62;98813.64;1773660;81;21047;-45
2022/01/08 09:15:41;;;;;;;31.95;15.03;;;;;;;-0.60;65.13;98814.91;1773379;81;21004;-45
2022/01/08 09:18:07;;;;;;;27.67;14.25;;;;;;;-0.59;65.94;98817.05;1773559;81;20975;-46
2022/01/08 09:20:33;;;;;;;32.65;15.38;;;;;;;-0.66;67.05;98811.58;1773597;81;21022;-44
2022/01/08 09:22:58;;;;;;;26.25;14.35;;;;;;;-0.67;67.89;98813.77;1773656;81;20995;-45
2022/01/08 09:25:25;;;;;;;26.52;13.70;;;;;;;-0.58;67.56;98807.14;1773621;81;21027;-43
2022/01/08 09:27:51;;;;;;;35.30;16.30;;;;;;;-0.52;66.99;98810.89;1773664;81;21019;-45
2022/01/08 09:30:16;;;;;;;33.78;15.93;;;;;;;-0.55;67.34;98809.64;1773664;81;20995;-43
2022/01/08 09:32:44;;;;;;;41.10;18.17;;;;;;;-0.49;67.69;98797.05;1773610;81;21003;-45
2022/01/08 09:35:13;;;;;;;29.48;15.35;;;;;;;-0.44;67.28;98793.53;1773813;81;21481;-42
2022/01/08 09:37:39;;;;;;;38.28;16.62;;;;;;;-0.39;66.81;98790.40;1773655;81;20979;-42
2022/01/08 09:40:13;;;;;;;26.48;13.98;;;;;;;-0.49;67.79;98796.64;1773637;81;20968;-44
2022/01/08 09:42:41;;;;;;;26.40;13.93;;;;;;;-0.45;68.07;98785.81;1773647;81;21441;-45
2022/01/08 09:45:08;;;;;;;33.95;14.85;;;;;;;-0.45;68.29;98783.23;1773516;80;21450;-44
2022/01/08 09:47:34;;;;;;;28.87;14.13;;;;;;;-0.39;69.13;98781.36;1773416;81;21732;-41
2022/01/08 09:49:59;;;;;;;29.67;13.70;;;;;;;-0.34;68.91;98772.24;1772841;81;20995;-45
2022/01/08 09:52:25;;;;;;;30.25;14.98;;;;;;;-0.31;69.01;98777.78;1773690;81;20976;-43
2022/01/08 09:54:51;;;;;;;32.13;15.65;;;;;;;-0.27;69.75;98775.56;1773674;81;21536;-45
2022/01/08 09:57:17;;;;;;;35.25;15.83;;;;;;;-0.20;69.94;98771.95;1773622;81;20994;-44
2022/01/08 09:59:43;;;;;;;30.15;14.40;;;;;;;-0.14;70.53;98764.09;1773555;81;20968;-44
2022/01/08 10:02:09;;;;;;;36.30;15.25;;;;;;;-0.05;69.99;98766.48;1773619;81;21022;-42
2022/01/08 10:04:37;;;;;;;33.95;15.40;;;;;;;0.02;69.34;98760.76;1773623;81;20995;-46
2022/01/08 10:07:22;;;;;;;46.58;20.10;;;;;;;-0.01;70.32;98758.23;1773570;81;21116;-43
2022/01/08 10:10:12;;;;;;;34.05;16.30;;;;;;;0.07;70.04;98760.64;1773644;81;20994;-43
2022/01/08 10:12:56;;;;;;;30.90;15.13;;;;;;;-0.03;71.25;98762.58;1773608;81;21061;-43
2022/01/08 10:18:35;;;;;;;26.90;15.35;;;;;;;-0.03;71.31;98765.16;1773883;81;21031;-44
2022/01/08 10:21:18;;;;;;;29.92;14.55;;;;;;;0.05;70.85;98767.58;1773704;81;20988;-44
2022/01/08 10:23:49;;;;;;;28.45;14.43;;;;;;;0.07;70.79;98757.61;1773694;81;21480;-45
2022/01/08 10:26:18;;;;;;;33.78;16.00;;;;;;;0.18;70.62;98757.38;1773115;81;21011;-49
2022/01/08 10:28:53;;;;;;;37.50;17.60;;;;;;;0.15;71.28;98758.76;1773606;81;21120;-48
2022/01/08 10:31:27;;;;;;;30.97;16.57;;;;;;;0.29;70.19;98753.27;1773611;81;20991;-45
2022/01/08 10:34:06;;;;;;;27.07;14.95;;;;;;;0.30;70.62;98753.23;1773571;81;20984;-45
2022/01/08 10:36:37;;;;;;;25.17;14.28;;;;;;;0.35;69.74;98744.94;1773629;81;20964;-43
2022/01/08 10:39:20;;;;;;;34.63;15.83;;;;;;;0.33;69.91;98745.88;1773596;81;21051;-44
2022/01/08 10:41:48;;;;;;;32.30;15.40;;;;;;;0.46;69.70;98749.86;1773654;81;20995;-45
2022/01/08 10:44:30;;;;;;;30.45;16.70;;;;;;;0.49;69.39;98746.34;1777309;80;21031;-46
2022/01/08 10:47:16;;;;;;;29.50;14.28;;;;;;;0.56;69.51;98745.31;1779933;80;20956;-44
2022/01/08 10:50:00;;;;;;;26.10;14.93;;;;;;;0.64;69.11;98740.83;1752230;80;20971;-43
2022/01/08 10:52:26;;;;;;;23.18;13.65;;;;;;;0.72;68.94;98745.81;1781830;80;20983;-45
2022/01/08 10:55:01;;;;;;;24.77;13.60;;;;;;;0.77;68.66;98741.38;1781800;80;20960;-45
2022/01/08 10:57:39;;;;;;;26.27;13.58;;;;;;;0.81;68.64;98744.74;1781835;80;20991;-45
2022/01/08 11:00:11;;;;;;;22.73;12.47;;;;;;;0.79;68.28;98738.76;1781779;80;20991;-45
2022/01/08 11:02:38;;;;;;;30.60;13.18;;;;;;;0.81;68.03;98739.56;1752773;80;20991;-43
2022/01/08 11:05:07;;;;;;;27.62;13.45;;;;;;;0.75;67.97;98740.56;1752113;80;21472;-46
2022/01/08 11:07:36;;;;;;;24.75;13.38;;;;;;;0.74;67.94;98729.34;1781839;80;21457;-44
2022/01/08 11:10:08;;;;;;;24.25;13.22;;;;;;;0.70;67.94;98735.49;1781833;80;21491;-43
2022/01/08 11:12:40;;;;;;;21.23;11.70;;;;;;;0.66;68.04;98729.98;1781769;80;21174;-42
2022/01/08 11:15:25;;;;;;;25.00;12.18;;;;;;;0.74;68.19;98730.64;1781618;80;20948;-43
2022/01/08 11:17:49;;;;;;;29.72;12.78;;;;;;;0.75;67.87;98731.52;1779229;80;21571;-43
2022/01/08 11:20:22;;;;;;;27.40;12.63;;;;;;;0.80;67.87;98732.67;1781897;80;20971;-42
2022/01/08 11:22:52;;;;;;;27.40;13.68;;;;;;;0.77;67.80;98736.20;1779349;80;21039;-42
2022/01/08 11:25:23;;;;;;;26.60;13.28;;;;;;;0.83;67.92;98736.49;1781736;80;21445;-41
2022/01/08 11:28:13;;;;;;;26.07;12.98;;;;;;;0.87;67.78;98735.52;1781909;80;20980;-44
2022/01/08 11:30:43;;;;;;;25.88;13.48;;;;;;;0.88;67.65;98733.35;1781754;80;21626;-44
2022/01/08 11:33:17;;;;;;;25.65;14.00;;;;;;;0.89;67.53;98732.45;1781786;80;21555;-42
2022/01/08 11:35:43;;;;;;;30.10;14.23;;;;;;;0.89;67.72;98728.56;1781194;80;20968;-46
2022/01/08 11:38:13;;;;;;;28.73;12.70;;;;;;;0.74;67.18;98725.46;1781800;80;21022;-43
2022/01/08 11:40:43;;;;;;;27.32;12.18;;;;;;;0.80;67.44;98722.32;1781828;80;20999;-44
2022/01/08 11:43:12;;;;;;;27.27;12.40;;;;;;;0.89;67.70;98723.39;1781696;80;20983;-42
2022/01/08 11:45:47;;;;;;;25.80;13.05;;;;;;;0.90;67.38;98722.05;1767521;80;21067;-42
2022/01/08 11:48:14;;;;;;;25.30;13.03;;;;;;;0.92;67.38;98724.61;1764564;81;21027;-43
2022/01/08 11:50:51;;;;;;;25.23;12.75;;;;;;;0.98;67.42;98724.44;1766646;81;21489;-42